Time;durP1;ratioP1;P1;durP2;ratioP2;P2;SDS_P1;SDS_P2;PMS_P1;PMS_P2;Temp;Humidity;BMP_temperature;BMP_pressure;BME280_temperature;BME280_humidity;BME280_pressure;Samples;Min_cycle;Max_cycle;Signal;HPM_P1;HPM_P2
2022/12/28 00:01:14;;;;;;;9.60;4.50;;;5.30;99.90;;;;;;5042206;28;20076;-83
2022/12/28 00:03:40;;;;;;;11.27;4.45;;;5.30;99.90;;;;;;5032144;28;20088;-82
2022/12/28 00:06:06;;;;;;;12.05;4.78;;;5.40;99.90;;;;;;5047930;28;20114;-83
2022/12/28 00:08:32;;;;;;;11.98;4.85;;;5.30;99.90;;;;;;5048878;28;20107;-84
2022/12/28 00:11:03;;;;;;;12.48;5.00;;;5.30;99.90;;;;;;5024472;28;20458;-81
2022/12/28 00:13:30;;;;;;;9.23;4.43;;;5.30;99.90;;;;;;5032328;28;20041;-83
2022/12/28 00:15:55;;;;;;;10.23;4.10;;;5.30;99.90;;;;;;5048819;28;20041;-86
2022/12/28 00:18:21;;;;;;;13.65;4.60;;;5.30;99.90;;;;;;5047116;28;20045;-84
2022/12/28 00:20:57;;;;;;;12.48;4.60;;;5.30;99.90;;;;;;5020796;28;20491;-83
2022/12/28 00:23:23;;;;;;;8.48;4.43;;;5.30;99.90;;;;;;5023579;28;20511;-82
2022/12/28 00:25:49;;;;;;;8.63;4.88;;;5.30;99.90;;;;;;5050615;28;20036;-83
2022/12/28 00:28:15;;;;;;;10.65;4.75;;;5.30;99.90;;;;;;5032425;28;20502;-83
2022/12/28 00:30:40;;;;;;;10.10;5.47;;;5.30;99.90;;;;;;5050576;28;20045;-82
2022/12/28 00:33:06;;;;;;;8.13;5.30;;;5.40;99.90;;;;;;5051727;28;20044;-81
2022/12/28 00:35:31;;;;;;;13.43;5.72;;;5.30;99.90;;;;;;5034110;28;20037;-83
2022/12/28 00:37:57;;;;;;;11.57;5.45;;;5.40;99.90;;;;;;5028525;28;20395;-82
2022/12/28 00:40:22;;;;;;;12.32;5.53;;;5.40;99.90;;;;;;5050818;28;20044;-82
2022/12/28 00:42:48;;;;;;;11.90;5.82;;;5.40;99.90;;;;;;5033618;28;20052;-84
2022/12/28 00:45:13;;;;;;;10.80;5.45;;;5.40;99.90;;;;;;5041305;28;20443;-83
2022/12/28 00:47:39;;;;;;;9.82;5.60;;;5.40;99.90;;;;;;5025747;28;20402;-81
2022/12/28 00:50:05;;;;;;;12.25;5.32;;;5.50;99.90;;;;;;5045047;28;20052;-82
2022/12/28 00:52:30;;;;;;;9.95;5.60;;;5.40;99.90;;;;;;5033284;28;20483;-82
2022/12/28 00:54:56;;;;;;;10.05;5.15;;;5.50;99.90;;;;;;5047709;28;20128;-84
2022/12/28 00:57:21;;;;;;;9.05;5.35;;;5.40;99.90;;;;;;5022436;28;20064;-81
2022/12/28 00:59:47;;;;;;;9.50;5.50;;;5.50;99.90;;;;;;5031296;28;20037;-83
2022/12/28 01:02:12;;;;;;;10.20;5.32;;;5.40;99.90;;;;;;5048763;28;20040;-82
2022/12/28 01:04:38;;;;;;;12.30;5.60;;;5.40;99.90;;;;;;5047560;28;20033;-82
2022/12/28 01:07:03;;;;;;;10.65;5.60;;;5.50;99.90;;;;;;5048077;28;20049;-84
2022/12/28 01:09:29;;;;;;;10.10;5.82;;;5.50;99.90;;;;;;5049804;28;20067;-82
2022/12/28 01:11:54;;;;;;;10.60;5.32;;;5.40;99.90;;;;;;5048174;28;20993;-83
2022/12/28 01:14:20;;;;;;;8.63;5.18;;;5.40;99.90;;;;;;5051591;28;20040;-84
2022/12/28 01:16:46;;;;;;;8.48;5.13;;;5.40;99.90;;;;;;5050177;28;20120;-82
2022/12/28 01:19:17;;;;;;;12.88;5.53;;;5.50;99.90;;;;;;5047142;28;20403;-82
2022/12/28 01:21:42;;;;;;;9.48;5.13;;;5.40;99.90;;;;;;5050993;28;20441;-83
2022/12/28 01:24:08;;;;;;;11.77;5.68;;;5.50;99.90;;;;;;5048887;28;20032;-82
2022/12/28 01:26:34;;;;;;;9.75;5.35;;;5.50;99.90;;;;;;5051284;28;20033;-83
2022/12/28 01:28:59;;;;;;;12.63;5.60;;;5.50;99.90;;;;;;5035092;28;20039;-83
2022/12/28 01:31:26;;;;;;;10.98;5.63;;;5.40;99.90;;;;;;5052697;28;20406;-83
2022/12/28 01:33:51;;;;;;;11.57;6.00;;;5.50;99.90;;;;;;5033865;28;20060;-82
2022/12/28 01:36:20;;;;;;;8.90;5.10;;;5.40;99.90;;;;;;5050985;28;20068;-84
2022/12/28 01:38:47;;;;;;;11.30;5.60;;;5.40;99.90;;;;;;5032872;28;20220;-82
2022/12/28 01:41:15;;;;;;;10.27;5.78;;;5.40;99.90;;;;;;5031570;28;20033;-82
2022/12/28 01:43:46;;;;;;;11.52;6.18;;;5.40;99.90;;;;;;5050588;28;20372;-82
2022/12/28 01:46:16;;;;;;;10.80;5.72;;;5.40;99.90;;;;;;5049917;28;20033;-83
2022/12/28 01:48:49;;;;;;;8.10;5.93;;;5.40;99.90;;;;;;5029610;28;20084;-83
2022/12/28 01:51:18;;;;;;;10.35;5.60;;;5.40;99.90;;;;;;5043151;28;20061;-83
2022/12/28 01:53:44;;;;;;;12.48;5.50;;;5.40;99.90;;;;;;5028753;28;20104;-82
2022/12/28 01:56:10;;;;;;;10.57;6.13;;;5.40;99.90;;;;;;5034318;28;20044;-83
2022/12/28 01:58:36;;;;;;;10.60;6.30;;;5.40;99.90;;;;;;5048725;28;20407;-82
2022/12/28 02:01:02;;;;;;;9.55;6.18;;;5.50;99.90;;;;;;5052049;28;20206;-82
2022/12/28 02:03:31;;;;;;;11.07;6.32;;;5.50;99.90;;;;;;5051569;28;20112;-83
2022/12/28 02:06:00;;;;;;;12.63;6.53;;;5.50;99.90;;;;;;5048348;28;20112;-81
2022/12/28 02:08:40;;;;;;;12.60;6.75;;;5.40;99.90;;;;;;5045526;28;20049;-83
2022/12/28 02:11:10;;;;;;;12.15;6.53;;;5.50;99.90;;;;;;5050825;28;20032;-84
2022/12/28 02:13:36;;;;;;;11.27;6.80;;;5.50;99.90;;;;;;5031304;28;20036;-83
2022/12/28 02:16:04;;;;;;;12.30;6.82;;;5.50;99.90;;;;;;5050010;28;20032;-84
2022/12/28 02:18:30;;;;;;;12.60;6.45;;;5.50;99.90;;;;;;5048706;28;20460;-83
2022/12/28 02:21:23;;;;;;;11.80;6.97;;;5.50;99.90;;;;;;5045798;28;20041;-82
2022/12/28 02:24:32;;;;;;;10.97;7.03;;;5.50;99.90;;;;;;5022444;28;20052;-81
2022/12/28 02:27:09;;;;;;;14.73;6.72;;;5.50;99.90;;;;;;5042664;28;20044;-83
2022/12/28 02:30:00;;;;;;;11.77;6.65;;;5.50;99.90;;;;;;5020667;28;20099;-82
2022/12/28 02:32:57;;;;;;;12.43;7.60;;;5.50;99.90;;;;;;5051383;28;20099;-83
2022/12/28 02:35:38;;;;;;;13.40;7.70;;;5.30;99.90;;;;;;5050039;28;20511;-82
2022/12/28 02:38:14;;;;;;;11.02;6.93;;;5.50;99.90;;;;;;5051102;28;20447;-84
2022/12/28 02:40:52;;;;;;;11.13;6.78;;;5.50;99.90;;;;;;5048186;28;20487;-81
2022/12/28 02:43:18;;;;;;;9.27;6.43;;;5.50;99.90;;;;;;5052767;28;20116;-81
2022/12/28 02:51:56;;;;;;;12.00;6.47;;;5.50;99.90;;;;;;5048174;28;20040;-83
2022/12/28 02:57:58;;;;;;;10.65;7.15;;;5.60;99.90;;;;;;5039548;28;20041;-79
2022/12/28 03:00:28;;;;;;;9.45;7.00;;;5.50;99.90;;;;;;5033138;28;20102;-81
2022/12/28 03:03:21;;;;;;;10.27;7.38;;;5.60;99.90;;;;;;5037875;28;20052;-79
2022/12/28 03:09:26;;;;;;;11.25;6.88;;;5.60;99.90;;;;;;5048433;28;20053;-81
2022/12/28 03:12:08;;;;;;;12.52;7.68;;;5.70;99.90;;;;;;5053936;28;20522;-83
2022/12/28 03:14:52;;;;;;;14.23;7.60;;;5.70;99.90;;;;;;5044812;28;20040;-82
2022/12/28 03:31:20;;;;;;;10.57;7.40;;;5.90;99.90;;;;;;5047599;28;20453;-83
2022/12/28 03:33:51;;;;;;;12.30;8.25;;;6.00;99.90;;;;;;5043191;28;20064;-83
2022/12/28 03:36:36;;;;;;;12.88;8.45;;;6.10;99.90;;;;;;5045927;28;20052;-83
2022/12/28 03:39:11;;;;;;;11.73;7.45;;;6.00;99.90;;;;;;5048067;28;20102;-83
2022/12/28 03:41:46;;;;;;;11.57;8.10;;;6.00;99.90;;;;;;5031567;28;20029;-82
2022/12/28 03:44:25;;;;;;;15.18;8.82;;;6.10;99.90;;;;;;5048403;28;20029;-83
2022/12/28 03:47:22;;;;;;;17.15;8.52;;;6.10;99.90;;;;;;5044987;28;20032;-84
2022/12/28 03:49:48;;;;;;;12.70;8.80;;;6.10;99.90;;;;;;5039395;28;20052;-84
2022/12/28 03:52:15;;;;;;;11.13;7.47;;;6.20;99.90;;;;;;5033782;28;20666;-85
2022/12/28 03:54:40;;;;;;;11.25;8.50;;;6.20;99.90;;;;;;5050521;28;20124;-82
2022/12/28 03:57:06;;;;;;;12.07;7.72;;;6.20;99.90;;;;;;5047496;28;20124;-82
2022/12/28 03:59:31;;;;;;;10.85;7.78;;;6.20;99.90;;;;;;5030686;28;20141;-81
2022/12/28 04:01:57;;;;;;;10.35;7.80;;;6.20;99.90;;;;;;5036520;28;20405;-79
2022/12/28 04:04:22;;;;;;;11.65;7.43;;;6.30;99.90;;;;;;5050911;28;20041;-81
2022/12/28 04:06:48;;;;;;;12.25;7.93;;;6.30;99.90;;;;;;5035186;28;20036;-82
2022/12/28 04:09:13;;;;;;;11.07;7.30;;;6.20;99.90;;;;;;5049833;28;20079;-84
2022/12/28 04:11:39;;;;;;;9.35;6.97;;;6.20;99.90;;;;;;5044022;28;20026;-82
2022/12/28 04:14:05;;;;;;;10.55;7.75;;;6.20;99.90;;;;;;5049118;28;20029;-81
2022/12/28 04:16:30;;;;;;;8.90;7.15;;;6.20;99.90;;;;;;5049711;28;20166;-82
2022/12/28 04:18:56;;;;;;;9.95;7.38;;;6.30;99.90;;;;;;5026568;28;20182;-82
2022/12/28 04:21:22;;;;;;;9.27;6.90;;;6.30;99.90;;;;;;5042150;28;20533;-81
2022/12/28 04:23:47;;;;;;;9.45;6.90;;;6.30;99.90;;;;;;5043947;28;20411;-81
2022/12/28 04:26:14;;;;;;;8.75;6.53;;;6.30;99.90;;;;;;5048393;28;20124;-84
2022/12/28 04:28:41;;;;;;;8.45;6.40;;;6.30;99.90;;;;;;5045848;28;20041;-83
2022/12/28 04:31:09;;;;;;;10.35;7.30;;;6.30;99.90;;;;;;5025024;28;20041;-84
2022/12/28 04:33:37;;;;;;;7.63;6.30;;;6.40;99.90;;;;;;5049192;28;20318;-84
2022/12/28 04:36:14;;;;;;;8.63;6.53;;;6.40;99.90;;;;;;5037561;28;20458;-82
2022/12/28 04:38:39;;;;;;;7.68;6.05;;;6.40;99.90;;;;;;5046240;28;20054;-82
2022/12/28 04:41:07;;;;;;;8.30;6.63;;;6.40;99.90;;;;;;5029144;28;20392;-83
2022/12/28 04:43:33;;;;;;;8.90;6.88;;;6.40;99.90;;;;;;5054476;28;20037;-83
2022/12/28 04:46:00;;;;;;;8.15;6.72;;;6.50;99.90;;;;;;5051389;28;20449;-83
2022/12/28 04:48:27;;;;;;;9.13;6.82;;;6.50;99.90;;;;;;5051191;28;20070;-83
2022/12/28 04:50:54;;;;;;;9.00;7.30;;;6.50;99.90;;;;;;5052644;28;20065;-84
2022/12/28 04:53:20;;;;;;;10.82;8.20;;;6.50;99.90;;;;;;5037958;28;20095;-84
2022/12/28 04:55:45;;;;;;;9.60;7.70;;;6.50;99.90;;;;;;5052497;28;20041;-82
2022/12/28 04:58:11;;;;;;;9.48;7.68;;;6.60;99.90;;;;;;5049097;28;20117;-83
2022/12/28 05:00:37;;;;;;;10.50;7.93;;;6.60;99.90;;;;;;5053201;28;20078;-82
2022/12/28 05:03:03;;;;;;;9.70;7.97;;;6.60;99.90;;;;;;5036715;28;20068;-82
2022/12/28 05:05:29;;;;;;;11.95;8.13;;;6.60;99.90;;;;;;5035085;28;20032;-80
2022/12/28 05:07:55;;;;;;;11.27;8.68;;;6.60;99.90;;;;;;5048533;28;20040;-82
2022/12/28 05:10:21;;;;;;;12.55;9.27;;;6.60;99.90;;;;;;5048929;28;20078;-81
2022/12/28 05:12:46;;;;;;;13.38;9.43;;;6.70;99.90;;;;;;5054407;28;20096;-81
2022/12/28 05:15:12;;;;;;;12.57;9.90;;;6.70;99.90;;;;;;5030898;28;20128;-82
2022/12/28 05:17:37;;;;;;;13.48;10.48;;;6.70;99.90;;;;;;5049639;28;20037;-81
2022/12/28 05:20:04;;;;;;;14.90;9.68;;;6.80;99.90;;;;;;5056060;28;20525;-81
2022/12/28 05:22:30;;;;;;;12.57;10.48;;;6.80;99.90;;;;;;5053138;28;20033;-82
2022/12/28 05:24:55;;;;;;;14.70;10.57;;;6.80;99.90;;;;;;5034214;28;20037;-82
2022/12/28 05:27:21;;;;;;;14.20;10.77;;;6.80;99.90;;;;;;5050964;28;20123;-82
2022/12/28 05:29:47;;;;;;;16.60;11.32;;;6.80;99.90;;;;;;5050233;28;20037;-82
2022/12/28 05:32:12;;;;;;;16.67;11.50;;;6.90;99.90;;;;;;5051216;28;20394;-83
2022/12/28 05:34:38;;;;;;;16.00;11.88;;;6.90;99.90;;;;;;5048740;28;20124;-82
2022/12/28 05:37:03;;;;;;;15.45;11.60;;;7.00;99.90;;;;;;5051384;28;20071;-81
2022/12/28 05:39:29;;;;;;;15.32;12.50;;;7.00;99.90;;;;;;5048405;28;20047;-83
2022/12/28 05:41:59;;;;;;;14.60;11.82;;;7.00;99.90;;;;;;5052223;28;20128;-83
2022/12/28 05:44:28;;;;;;;15.32;11.50;;;7.00;99.90;;;;;;5049543;28;20083;-83
2022/12/28 05:46:54;;;;;;;16.00;12.45;;;7.00;99.90;;;;;;5031955;28;20040;-82
2022/12/28 05:49:20;;;;;;;17.98;13.68;;;7.00;99.90;;;;;;5050226;28;20041;-82
2022/12/28 05:51:48;;;;;;;19.50;14.15;;;7.10;99.90;;;;;;5050357;28;20033;-82
2022/12/28 05:54:14;;;;;;;19.10;14.00;;;7.10;99.90;;;;;;5050747;28;20037;-82
2022/12/28 05:56:39;;;;;;;19.40;13.75;;;7.20;99.90;;;;;;5051577;28;20102;-81
2022/12/28 05:59:06;;;;;;;21.08;15.23;;;7.20;99.90;;;;;;5046112;28;20415;-81
2022/12/28 06:01:37;;;;;;;19.85;14.77;;;7.20;99.90;;;;;;5049755;28;20158;-84
2022/12/28 06:04:06;;;;;;;18.42;14.43;;;7.30;99.90;;;;;;5031138;28;20033;-83
2022/12/28 06:06:33;;;;;;;20.08;15.25;;;7.20;99.90;;;;;;5032236;28;20036;-84
2022/12/28 06:09:00;;;;;;;22.00;15.30;;;7.30;99.90;;;;;;5041164;28;20529;-82
2022/12/28 06:11:27;;;;;;;19.35;14.27;;;7.30;99.90;;;;;;5027331;28;20116;-83
2022/12/28 06:13:53;;;;;;;17.98;14.93;;;7.30;99.90;;;;;;5041155;28;20049;-84
2022/12/28 06:16:20;;;;;;;20.60;15.27;;;7.30;99.90;;;;;;5045610;28;21369;-85
2022/12/28 06:18:46;;;;;;;21.17;15.18;;;7.30;99.90;;;;;;5047386;28;20188;-83
2022/12/28 06:21:18;;;;;;;20.42;14.32;;;7.40;99.90;;;;;;5033239;28;20072;-82
2022/12/28 06:23:45;;;;;;;21.95;14.18;;;7.40;99.90;;;;;;5043750;28;20368;-83
2022/12/28 06:26:16;;;;;;;18.00;13.50;;;7.40;99.90;;;;;;5037989;28;20025;-81
2022/12/28 06:28:42;;;;;;;18.10;14.13;;;7.50;99.90;;;;;;5033189;28;20047;-82
2022/12/28 06:31:20;;;;;;;14.63;12.13;;;7.50;99.90;;;;;;5034501;28;20037;-82
2022/12/28 06:33:46;;;;;;;18.98;12.68;;;7.50;99.90;;;;;;5046798;28;20190;-84
2022/12/28 06:36:17;;;;;;;16.02;12.32;;;7.50;99.90;;;;;;5049722;28;20037;-83
2022/12/28 06:38:42;;;;;;;15.07;11.98;;;7.60;99.90;;;;;;5043124;28;20041;-83
2022/12/28 06:41:10;;;;;;;14.27;11.27;;;7.60;99.90;;;;;;5050770;28;20460;-82
2022/12/28 06:43:37;;;;;;;14.95;12.32;;;7.60;99.90;;;;;;5049406;28;20396;-82
2022/12/28 06:46:04;;;;;;;15.18;11.60;;;7.60;99.90;;;;;;5052314;28;20116;-83
2022/12/28 06:48:30;;;;;;;14.90;11.77;;;7.60;99.90;;;;;;5040714;28;20040;-85
2022/12/28 06:50:58;;;;;;;16.40;12.10;;;7.60;99.90;;;;;;5044548;28;20041;-82
2022/12/28 06:53:26;;;;;;;14.27;11.82;;;7.70;99.90;;;;;;5047632;28;20556;-84
2022/12/28 06:55:54;;;;;;;14.90;12.10;;;7.70;99.90;;;;;;5047828;28;20056;-83
2022/12/28 06:58:19;;;;;;;16.38;11.65;;;7.70;99.90;;;;;;5045044;28;20048;-85
2022/12/28 07:00:45;;;;;;;14.15;10.77;;;7.70;99.90;;;;;;5048031;28;20403;-83
2022/12/28 07:03:10;;;;;;;15.23;12.07;;;7.70;99.90;;;;;;5049800;28;20119;-84
2022/12/28 07:05:36;;;;;;;14.45;12.40;;;7.80;99.90;;;;;;5036626;28;20041;-84
2022/12/28 07:08:01;;;;;;;15.93;11.93;;;7.80;99.90;;;;;;5051928;28;20040;-81
2022/12/28 07:10:27;;;;;;;14.80;11.27;;;7.80;99.90;;;;;;5051774;28;20407;-82
2022/12/28 07:12:52;;;;;;;15.35;11.73;;;7.80;99.90;;;;;;5051564;28;20383;-84
2022/12/28 07:15:18;;;;;;;15.65;11.68;;;7.80;99.90;;;;;;5051533;28;20037;-84
2022/12/28 07:17:43;;;;;;;17.42;11.35;;;7.80;99.90;;;;;;5036936;28;20141;-82
2022/12/28 07:20:09;;;;;;;15.75;11.05;;;7.80;99.90;;;;;;5032200;28;20075;-83
2022/12/28 07:22:34;;;;;;;17.13;11.65;;;7.80;99.90;;;;;;5052218;28;20697;-83
2022/12/28 07:25:00;;;;;;;15.45;11.63;;;7.90;99.90;;;;;;5051822;28;20039;-83
2022/12/28 07:27:25;;;;;;;16.67;11.50;;;7.90;99.90;;;;;;5052050;28;20053;-81
2022/12/28 07:29:51;;;;;;;17.10;12.93;;;7.90;99.90;;;;;;5052514;28;20041;-81
2022/12/28 07:32:16;;;;;;;16.45;12.60;;;8.00;99.90;;;;;;5051324;28;20530;-83
2022/12/28 07:34:42;;;;;;;17.63;13.35;;;8.00;99.90;;;;;;5035295;28;20090;-81
2022/12/28 07:37:07;;;;;;;18.65;12.50;;;8.10;99.90;;;;;;5051785;28;20071;-83
2022/12/28 07:39:34;;;;;;;18.40;12.98;;;8.10;99.90;;;;;;5051954;28;20407;-82
2022/12/28 07:42:00;;;;;;;19.30;12.35;;;8.10;99.90;;;;;;5035144;28;20052;-82
2022/12/28 07:44:25;;;;;;;17.60;11.48;;;8.20;99.90;;;;;;5051908;28;20045;-82
2022/12/28 07:46:51;;;;;;;19.38;13.57;;;8.10;99.90;;;;;;5035158;28;20285;-83
2022/12/28 07:49:16;;;;;;;18.85;13.25;;;8.20;99.90;;;;;;5050951;28;20467;-81
2022/12/28 07:51:42;;;;;;;16.73;12.68;;;8.20;99.90;;;;;;5052268;28;20047;-79
2022/12/28 07:54:07;;;;;;;19.25;13.02;;;8.30;99.90;;;;;;5035509;28;20033;-81
2022/12/28 07:56:33;;;;;;;18.58;12.68;;;8.30;99.90;;;;;;5051500;28;20069;-83
2022/12/28 07:59:01;;;;;;;20.65;13.07;;;8.40;99.90;;;;;;5051895;28;20041;-84
2022/12/28 08:01:30;;;;;;;19.05;12.85;;;8.40;99.90;;;;;;5036270;28;20041;-81
2022/12/28 08:04:02;;;;;;;20.00;13.90;;;8.50;99.90;;;;;;5035028;28;20048;-83
2022/12/28 08:06:28;;;;;;;20.65;13.82;;;8.50;99.90;;;;;;5050464;28;20127;-82
2022/12/28 08:08:58;;;;;;;17.10;13.02;;;8.50;99.90;;;;;;5050706;28;20147;-82
2022/12/28 08:11:26;;;;;;;18.95;12.27;;;8.50;99.90;;;;;;5051266;28;20045;-82
2022/12/28 08:13:54;;;;;;;18.17;13.48;;;8.50;99.90;;;;;;5052976;28;20041;-81
2022/12/28 08:16:21;;;;;;;18.58;13.65;;;8.50;99.90;;;;;;5055023;28;20049;-84
2022/12/28 08:18:48;;;;;;;17.58;13.30;;;8.50;99.90;;;;;;5045729;28;20646;-82
2022/12/28 08:21:22;;;;;;;16.33;13.02;;;8.50;99.90;;;;;;5054226;28;20130;-82
2022/12/28 08:23:49;;;;;;;15.85;12.35;;;8.60;99.90;;;;;;5036929;28;20033;-83
2022/12/28 08:26:20;;;;;;;18.77;13.88;;;8.50;99.90;;;;;;5038051;28;20044;-83
2022/12/28 08:28:49;;;;;;;20.48;13.15;;;8.60;99.90;;;;;;5037823;28;20045;-83
2022/12/28 08:31:21;;;;;;;14.93;12.38;;;8.60;99.90;;;;;;5054802;28;20076;-81
2022/12/28 08:33:47;;;;;;;16.30;12.52;;;8.60;99.90;;;;;;5054530;28;20071;-85
2022/12/28 08:36:13;;;;;;;17.27;12.38;;;8.60;99.90;;;;;;5037397;28;20041;-82
2022/12/28 08:38:41;;;;;;;15.35;12.73;;;8.60;99.90;;;;;;5038328;28;20045;-82
2022/12/28 08:41:10;;;;;;;14.25;11.73;;;8.60;99.90;;;;;;5054629;28;20037;-82
2022/12/28 08:43:36;;;;;;;16.10;11.48;;;8.60;99.90;;;;;;5054644;28;20074;-83
2022/12/28 08:46:04;;;;;;;14.52;10.73;;;8.60;99.90;;;;;;5038678;28;20036;-83
2022/12/28 08:48:31;;;;;;;16.17;11.32;;;8.60;99.90;;;;;;5054296;28;20049;-83
2022/12/28 08:51:05;;;;;;;14.02;10.70;;;8.60;99.90;;;;;;5054391;28;20048;-83
2022/12/28 08:53:31;;;;;;;11.63;9.52;;;8.60;99.90;;;;;;5038472;28;20041;-83
2022/12/28 08:56:03;;;;;;;11.88;9.40;;;8.50;99.90;;;;;;5053992;28;20044;-81
2022/12/28 08:58:28;;;;;;;11.52;8.95;;;8.50;99.90;;;;;;5053688;28;20502;-83
2022/12/28 09:00:54;;;;;;;11.25;8.80;;;8.50;99.90;;;;;;5053104;28;20040;-83
2022/12/28 09:03:19;;;;;;;9.38;7.65;;;8.50;99.90;;;;;;5054729;28;20040;-82
2022/12/28 09:05:45;;;;;;;10.45;6.97;;;8.50;99.90;;;;;;5038549;28;20041;-82
2022/12/28 09:08:10;;;;;;;8.13;6.20;;;8.50;99.90;;;;;;5054414;28;20048;-81
2022/12/28 09:10:36;;;;;;;7.43;6.60;;;8.50;99.90;;;;;;5054061;28;20045;-83
2022/12/28 09:13:02;;;;;;;9.25;6.40;;;8.50;99.90;;;;;;5052725;28;20462;-83
2022/12/28 09:15:27;;;;;;;7.75;5.88;;;8.50;99.90;;;;;;5053825;28;20048;-84
2022/12/28 09:17:53;;;;;;;7.30;5.93;;;8.50;99.90;;;;;;5054030;28;20049;-82
2022/12/28 09:20:18;;;;;;;6.43;5.60;;;8.50;99.90;;;;;;5052095;28;20128;-84
2022/12/28 09:22:44;;;;;;;6.93;5.50;;;8.50;99.90;;;;;;5051693;28;20132;-83
2022/12/28 09:25:09;;;;;;;9.05;5.13;;;8.50;99.90;;;;;;5051770;28;20048;-81
2022/12/28 09:27:35;;;;;;;7.63;6.05;;;8.50;99.90;;;;;;5037306;28;20068;-83
2022/12/28 09:30:00;;;;;;;7.22;6.10;;;8.60;99.90;;;;;;5053564;28;20131;-83
2022/12/28 09:32:26;;;;;;;9.38;6.68;;;8.60;99.90;;;;;;5053339;28;20064;-82
2022/12/28 09:34:51;;;;;;;9.27;7.07;;;8.50;99.90;;;;;;5054225;28;20044;-80
2022/12/28 09:37:17;;;;;;;8.27;6.90;;;8.60;99.90;;;;;;5053533;28;20045;-81
2022/12/28 09:39:42;;;;;;;9.15;6.82;;;8.60;99.90;;;;;;5036906;28;20033;-82
2022/12/28 09:42:17;;;;;;;8.90;7.18;;;8.60;99.90;;;;;;5054329;28;20461;-81
2022/12/28 09:44:54;;;;;;;9.75;7.22;;;8.60;99.90;;;;;;5053591;28;20033;-83
2022/12/28 09:47:35;;;;;;;8.68;7.15;;;8.60;99.90;;;;;;5048313;28;20045;-80
2022/12/28 09:50:17;;;;;;;9.23;7.05;;;8.60;99.90;;;;;;5053511;28;20086;-82
2022/12/28 09:53:04;;;;;;;8.98;6.75;;;8.70;99.90;;;;;;5045982;28;20041;-82
2022/12/28 09:55:31;;;;;;;8.63;6.32;;;8.70;99.90;;;;;;5035910;28;20098;-83
2022/12/28 09:57:59;;;;;;;8.43;6.25;;;8.70;99.90;;;;;;5047955;28;20088;-83
2022/12/28 10:00:41;;;;;;;7.22;6.00;;;8.70;99.90;;;;;;5043643;28;20095;-81
2022/12/28 10:03:23;;;;;;;7.25;5.85;;;8.70;99.90;;;;;;5053330;28;20036;-80
2022/12/28 10:05:50;;;;;;;7.32;5.35;;;8.70;99.90;;;;;;5037387;28;20082;-82
2022/12/28 10:08:19;;;;;;;7.10;5.60;;;8.70;99.90;;;;;;5051015;28;20375;-83
2022/12/28 10:10:46;;;;;;;8.07;5.97;;;8.70;99.90;;;;;;5033854;28;20132;-82
2022/12/28 10:13:27;;;;;;;8.18;5.57;;;8.70;99.90;;;;;;5024247;28;20033;-84
2022/12/28 10:15:54;;;;;;;8.43;5.97;;;8.70;99.90;;;;;;5039676;28;20384;-82
2022/12/28 10:18:25;;;;;;;8.82;6.03;;;8.70;99.90;;;;;;5030255;28;20523;-82
2022/12/28 10:20:51;;;;;;;7.57;5.97;;;8.70;99.90;;;;;;5048852;28;20401;-82
2022/12/28 10:23:24;;;;;;;9.90;6.85;;;8.70;99.90;;;;;;5035707;28;20035;-81
2022/12/28 10:26:01;;;;;;;11.45;7.70;;;8.70;99.90;;;;;;5048518;28;20041;-82
2022/12/28 10:28:36;;;;;;;10.32;7.78;;;8.70;99.90;;;;;;5026364;28;20037;-82
2022/12/28 10:31:11;;;;;;;10.98;7.63;;;8.70;99.90;;;;;;5030994;28;20091;-83
2022/12/28 10:33:50;;;;;;;11.05;7.95;;;8.70;99.90;;;;;;5043129;28;20038;-82
2022/12/28 10:36:17;;;;;;;12.18;8.10;;;8.70;99.90;;;;;;5031710;28;20037;-81
2022/12/28 10:38:49;;;;;;;11.13;7.60;;;8.70;99.90;;;;;;5033873;28;20045;-81
2022/12/28 10:41:17;;;;;;;11.68;7.88;;;8.70;99.90;;;;;;5032425;28;20069;-84
2022/12/28 10:43:47;;;;;;;11.70;7.57;;;8.70;99.90;;;;;;5043655;28;20107;-82
2022/12/28 10:46:22;;;;;;;10.10;7.35;;;8.70;99.90;;;;;;5051808;28;20131;-82
2022/12/28 10:48:53;;;;;;;10.45;7.30;;;8.70;99.90;;;;;;5035377;28;20402;-83
2022/12/28 10:51:20;;;;;;;9.23;6.25;;;8.70;99.90;;;;;;5045513;28;20045;-81
2022/12/28 10:53:51;;;;;;;8.43;6.25;;;8.70;99.90;;;;;;5051456;28;20054;-83
2022/12/28 10:56:27;;;;;;;8.45;6.25;;;8.80;99.90;;;;;;5050012;28;20052;-85
2022/12/28 10:59:22;;;;;;;6.97;5.35;;;8.70;99.90;;;;;;5032102;28;20490;-84
2022/12/28 11:01:48;;;;;;;7.82;5.50;;;8.80;99.90;;;;;;5027619;28;20049;-82
2022/12/28 11:04:22;;;;;;;8.23;5.63;;;8.80;99.90;;;;;;5050624;28;20047;-85
2022/12/28 11:06:55;;;;;;;7.35;5.78;;;8.80;99.90;;;;;;5039940;28;20042;-84
2022/12/28 11:09:21;;;;;;;9.35;5.75;;;8.80;99.90;;;;;;5053708;28;20414;-83
2022/12/28 11:11:48;;;;;;;8.35;5.22;;;8.90;99.90;;;;;;5050254;28;20052;-84
2022/12/28 11:14:31;;;;;;;7.07;5.05;;;8.80;99.90;;;;;;5059020;28;20085;-83
2022/12/28 11:17:03;;;;;;;7.25;5.00;;;8.90;99.90;;;;;;5041996;28;20029;-86
2022/12/28 11:19:29;;;;;;;6.40;4.50;;;8.90;99.90;;;;;;5028536;28;20070;-85
2022/12/28 11:21:56;;;;;;;7.07;4.45;;;8.90;99.90;;;;;;5058784;28;20056;-84
2022/12/28 11:24:25;;;;;;;5.32;4.45;;;8.90;99.90;;;;;;5037898;28;20040;-84
2022/12/28 11:26:51;;;;;;;6.75;4.60;;;8.80;99.90;;;;;;5068009;28;20033;-83
2022/12/28 11:29:18;;;;;;;6.93;4.63;;;8.80;99.90;;;;;;5054024;28;20047;-81
2022/12/28 11:31:57;;;;;;;5.65;4.05;;;8.80;99.90;;;;;;5053734;28;20041;-85
2022/12/28 11:34:26;;;;;;;6.93;4.55;;;8.80;99.90;;;;;;5053465;28;20049;-86
2022/12/28 11:36:52;;;;;;;7.30;5.15;;;8.90;99.90;;;;;;5041148;28;20491;-85
2022/12/28 11:39:23;;;;;;;4.93;3.90;;;8.90;99.90;;;;;;5060921;28;20078;-81
2022/12/28 11:41:51;;;;;;;7.60;4.10;;;8.80;99.90;;;;;;5060023;28;20054;-84
2022/12/28 11:44:30;;;;;;;5.05;3.97;;;8.90;99.90;;;;;;5032510;28;20029;-82
2022/12/28 11:47:14;;;;;;;6.90;4.03;;;8.90;99.90;;;;;;5051663;28;20068;-83
2022/12/28 11:49:41;;;;;;;6.63;4.63;;;8.90;99.90;;;;;;5053005;28;20037;-84
2022/12/28 11:52:16;;;;;;;6.30;4.45;;;8.80;99.90;;;;;;5050319;28;20458;-84
2022/12/28 11:54:56;;;;;;;5.18;4.20;;;8.90;99.90;;;;;;5048382;28;20379;-82
2022/12/28 11:57:35;;;;;;;5.35;4.28;;;8.90;99.90;;;;;;5050936;28;20060;-82
2022/12/28 12:00:19;;;;;;;5.47;4.38;;;8.90;99.90;;;;;;5050911;28;20051;-83
2022/12/28 12:02:51;;;;;;;6.68;5.03;;;8.80;99.90;;;;;;5033756;28;20040;-83
2022/12/28 12:05:35;;;;;;;5.90;4.95;;;8.80;99.90;;;;;;5051045;28;20407;-83
2022/12/28 12:08:22;;;;;;;5.82;4.90;;;8.90;99.90;;;;;;5047131;28;20041;-83
2022/12/28 12:11:16;;;;;;;7.03;5.15;;;8.80;99.90;;;;;;5062116;28;20033;-86
2022/12/28 12:13:47;;;;;;;;;;;8.80;99.90;;;;;;5044326;28;20558;-85
2022/12/28 12:16:32;;;;;;;6.85;5.03;;;8.80;99.90;;;;;;5050403;28;19924;-83
2022/12/28 12:18:58;;;;;;;6.45;4.70;;;8.80;99.90;;;;;;5033382;28;20037;-84
2022/12/28 12:21:41;;;;;;;6.30;4.93;;;8.80;99.90;;;;;;5033304;28;20154;-83
2022/12/28 12:24:17;;;;;;;8.20;5.10;;;8.80;99.90;;;;;;5034352;28;20406;-83
2022/12/28 12:26:54;;;;;;;6.10;4.57;;;8.80;99.90;;;;;;5050886;28;20037;-82
2022/12/28 12:29:36;;;;;;;6.03;5.03;;;8.80;99.90;;;;;;5050702;28;20040;-84
2022/12/28 12:32:08;;;;;;;7.10;4.40;;;8.80;99.90;;;;;;5042201;28;20040;-85
2022/12/28 12:34:45;;;;;;;6.10;4.47;;;8.80;99.90;;;;;;5050348;28;20067;-83
2022/12/28 12:37:19;;;;;;;5.18;4.28;;;8.80;99.90;;;;;;5048271;28;20732;-84
2022/12/28 12:40:08;;;;;;;5.20;4.03;;;8.80;99.90;;;;;;5044778;28;20104;-84
2022/12/28 12:43:06;;;;;;;5.13;3.80;;;8.80;99.90;;;;;;5045152;28;20487;-85
2022/12/28 12:45:44;;;;;;;6.00;3.40;;;8.80;99.90;;;;;;5031407;28;20037;-83
2022/12/28 12:48:35;;;;;;;4.70;3.58;;;8.80;99.90;;;;;;5048890;28;20033;-83
2022/12/28 12:51:24;;;;;;;4.82;3.40;;;8.80;99.90;;;;;;5037107;28;20061;-83
2022/12/28 12:54:27;;;;;;;4.32;3.15;;;8.80;99.90;;;;;;5045343;28;20064;-83
2022/12/28 12:57:05;;;;;;;3.65;3.03;;;8.80;99.90;;;;;;5050847;28;20045;-82
2022/12/28 12:59:48;;;;;;;4.53;3.20;;;8.80;99.90;;;;;;5051555;28;20071;-83
2022/12/28 13:02:23;;;;;;;4.70;3.37;;;8.80;99.90;;;;;;5053714;28;20521;-82
2022/12/28 13:04:49;;;;;;;4.55;3.58;;;8.80;99.90;;;;;;5054429;28;20044;-83
2022/12/28 13:07:24;;;;;;;4.07;3.30;;;8.80;99.90;;;;;;5038574;28;20037;-82
2022/12/28 13:09:52;;;;;;;4.13;2.90;;;8.80;99.90;;;;;;5040583;28;20033;-82
2022/12/28 13:12:19;;;;;;;5.55;3.53;;;8.80;99.90;;;;;;5037392;28;20042;-81
2022/12/28 13:14:47;;;;;;;4.72;3.28;;;8.80;99.90;;;;;;5055094;28;20029;-83
2022/12/28 13:17:18;;;;;;;5.85;3.60;;;8.80;99.90;;;;;;5038362;28;20045;-83
2022/12/28 13:19:43;;;;;;;5.90;4.15;;;8.80;99.90;;;;;;5041018;28;20044;-83
2022/12/28 13:22:35;;;;;;;5.95;3.65;;;8.80;99.90;;;;;;5055650;28;20489;-82
2022/12/28 13:25:01;;;;;;;5.78;4.15;;;8.80;99.90;;;;;;5052106;28;20445;-81
2022/12/28 13:27:33;;;;;;;5.45;3.75;;;8.80;99.90;;;;;;5056160;28;20061;-80
2022/12/28 13:30:00;;;;;;;4.80;4.13;;;8.80;99.90;;;;;;5054041;28;20086;-83